Time;durP1;ratioP1;P1;durP2;ratioP2;P2;SDS_P1;SDS_P2;PMS_P1;PMS_P2;Temp;Humidity;BMP_temperature;BMP_pressure;BME280_temperature;BME280_humidity;BME280_pressure;Samples;Min_cycle;Max_cycle;Signal;HPM_P1;HPM_P2
2021/12/17 00:00:17;;;;;;;43.50;24.10;;;;;;;;;;5005541;28;20204;-57
2021/12/17 00:08:15;;;;;;;44.73;23.77;;;;;;;;;;5024186;28;20201;-58
2021/12/17 00:10:42;;;;;;;46.70;25.57;;;;;;;;;;5027046;28;20273;-58
2021/12/17 00:13:09;;;;;;;47.20;25.80;;;;;;;;;;5009917;28;20640;-57
2021/12/17 00:15:37;;;;;;;43.23;25.43;;;;;;;;;;5006627;28;20192;-57
2021/12/17 00:18:22;;;;;;;42.20;25.87;;;;;;;;;;5027242;28;20190;-58
2021/12/17 00:48:38;;;;;;;38.23;22.70;;;;;;;;;;5027364;28;20327;-57
2021/12/17 00:51:45;;;;;;;43.50;25.33;;;;;;;;;;5012427;28;20202;-58
2021/12/17 00:53:58;;;;;;;41.00;23.10;;;;;;;;;;5022408;28;20196;-57
2021/12/17 00:56:27;;;;;;;50.13;25.53;;;;;;;;;;5030733;28;20257;-58
2021/12/17 00:58:57;;;;;;;42.97;23.30;;;;;;;;;;5029619;28;20704;-58
2021/12/17 01:01:24;;;;;;;46.20;25.20;;;;;;;;;;5010908;28;20201;-57
2021/12/17 01:03:50;;;;;;;44.93;23.77;;;;;;;;;;5030831;28;20201;-58
2021/12/17 01:06:16;;;;;;;44.03;25.17;;;;;;;;;;5022494;28;20792;-57
2021/12/17 01:08:42;;;;;;;46.30;24.50;;;;;;;;;;5025299;28;20193;-58
2021/12/17 01:11:09;;;;;;;48.77;25.27;;;;;;;;;;5013082;28;20214;-57
2021/12/17 01:13:35;;;;;;;38.67;22.47;;;;;;;;;;5002222;28;20182;-57
2021/12/17 01:16:02;;;;;;;44.93;23.70;;;;;;;;;;5030180;28;20633;-57
2021/12/17 01:18:42;;;;;;;45.73;24.10;;;;;;;;;;5012726;28;20225;-58
2021/12/17 01:42:27;;;;;;;43.70;23.37;;;;;;;;;;5022968;28;20769;-57
2021/12/17 01:44:53;;;;;;;40.50;22.40;;;;;;;;;;5004030;28;20278;-57
2021/12/17 01:47:20;;;;;;;38.33;23.33;;;;;;;;;;5013267;28;20437;-58
2021/12/17 02:00:43;;;;;;;40.47;22.33;;;;;;;;;;4997970;28;20684;-58
2021/12/17 02:03:13;;;;;;;36.83;21.03;;;;;;;;;;5006175;28;20715;-58
2021/12/17 02:05:39;;;;;;;42.20;22.93;;;;;;;;;;4997581;28;20194;-57
2021/12/17 02:08:07;;;;;;;39.93;22.63;;;;;;;;;;5002449;28;20239;-57
2021/12/17 02:31:43;;;;;;;41.37;23.50;;;;;;;;;;4998589;28;20613;-58
2021/12/17 02:34:28;;;;;;;42.43;22.77;;;;;;;;;;5007478;28;20191;-57
2021/12/17 02:36:56;;;;;;;37.27;22.13;;;;;;;;;;5004973;28;20194;-57
2021/12/17 02:48:00;;;;;;;36.57;21.17;;;;;;;;;;4999502;28;20225;-58
2021/12/17 02:50:26;;;;;;;38.87;21.93;;;;;;;;;;4999933;28;20190;-57
2021/12/17 02:52:54;;;;;;;38.10;22.33;;;;;;;;;;5001967;28;20174;-57
2021/12/17 02:55:21;;;;;;;40.00;21.47;;;;;;;;;;5001704;28;20194;-57
2021/12/17 02:57:48;;;;;;;37.10;21.73;;;;;;;;;;5008657;28;20202;-57
2021/12/17 03:00:15;;;;;;;36.27;21.47;;;;;;;;;;5003977;28;20178;-58
2021/12/17 03:02:41;;;;;;;38.83;23.30;;;;;;;;;;5012758;28;20185;-58
2021/12/17 03:05:09;;;;;;;40.00;22.07;;;;;;;;;;4986788;28;20520;-57
2021/12/17 03:07:39;;;;;;;38.13;21.37;;;;;;;;;;5014134;28;20240;-57
2021/12/17 03:10:08;;;;;;;34.43;20.30;;;;;;;;;;5012164;28;20654;-57
2021/12/17 03:23:32;;;;;;;33.20;20.00;;;;;;;;;;5017965;28;20660;-58
2021/12/17 03:25:59;;;;;;;35.43;20.60;;;;;;;;;;4987737;28;20279;-57
2021/12/17 03:28:26;;;;;;;37.00;22.40;;;;;;;;;;4996213;28;20206;-57
2021/12/17 03:30:52;;;;;;;33.37;21.27;;;;;;;;;;5026373;28;20556;-58
2021/12/17 03:33:20;;;;;;;34.90;20.37;;;;;;;;;;5023162;28;20181;-57
2021/12/17 03:35:46;;;;;;;33.13;21.37;;;;;;;;;;5014153;28;20269;-57
2021/12/17 03:38:12;;;;;;;34.13;20.37;;;;;;;;;;5026764;28;20202;-57
2021/12/17 03:40:41;;;;;;;35.50;20.80;;;;;;;;;;5025414;28;20514;-58
2021/12/17 03:43:12;;;;;;;33.00;21.37;;;;;;;;;;5022813;28;20535;-57
2021/12/17 03:45:39;;;;;;;30.07;19.77;;;;;;;;;;5016816;28;20265;-57
2021/12/17 03:48:09;;;;;;;35.03;21.43;;;;;;;;;;4989751;28;20209;-58
2021/12/17 03:50:37;;;;;;;34.87;21.53;;;;;;;;;;5020704;28;20174;-58
2021/12/17 03:53:07;;;;;;;35.70;20.70;;;;;;;;;;5011911;28;20182;-57
2021/12/17 03:55:33;;;;;;;31.30;18.93;;;;;;;;;;5009370;28;20778;-57
2021/12/17 03:58:01;;;;;;;34.93;21.80;;;;;;;;;;5019993;28;20174;-57
2021/12/17 04:00:27;;;;;;;35.93;21.00;;;;;;;;;;5012257;28;20217;-57
2021/12/17 04:02:54;;;;;;;36.40;21.30;;;;;;;;;;5023366;28;20186;-57
2021/12/17 04:05:20;;;;;;;33.43;21.13;;;;;;;;;;5000214;28;20259;-57
2021/12/17 04:07:47;;;;;;;32.23;19.83;;;;;;;;;;4988576;28;20290;-58
2021/12/17 04:10:13;;;;;;;33.03;20.60;;;;;;;;;;5010329;28;20268;-58
2021/12/17 04:12:51;;;;;;;31.33;19.53;;;;;;;;;;5002737;28;20695;-57
2021/12/17 04:15:17;;;;;;;35.07;21.60;;;;;;;;;;5009205;28;20272;-57
2021/12/17 04:17:52;;;;;;;33.33;21.10;;;;;;;;;;5010501;28;20593;-57
2021/12/17 04:20:18;;;;;;;32.70;20.10;;;;;;;;;;5001635;28;20194;-57
2021/12/17 04:22:44;;;;;;;34.43;20.83;;;;;;;;;;5003811;28;20185;-57
2021/12/17 04:25:11;;;;;;;36.90;21.83;;;;;;;;;;5002384;28;20557;-58
2021/12/17 04:27:38;;;;;;;37.93;21.30;;;;;;;;;;5010124;28;20288;-57
2021/12/17 04:30:04;;;;;;;30.33;21.03;;;;;;;;;;5009201;28;20289;-57
2021/12/17 04:32:31;;;;;;;34.53;21.37;;;;;;;;;;5010397;28;20186;-57
2021/12/17 04:34:57;;;;;;;38.17;21.90;;;;;;;;;;5013208;28;20184;-58
2021/12/17 04:37:23;;;;;;;34.93;20.37;;;;;;;;;;5010141;28;20225;-58
2021/12/17 04:39:50;;;;;;;33.07;20.60;;;;;;;;;;5014577;28;20181;-57
2021/12/17 04:42:29;;;;;;;35.70;22.23;;;;;;;;;;5020224;28;20181;-58
2021/12/17 04:44:58;;;;;;;32.13;20.87;;;;;;;;;;5005480;28;20178;-57
2021/12/17 04:58:05;;;;;;;35.07;22.70;;;;;;;;;;5009792;28;20181;-57
2021/12/17 05:00:32;;;;;;;37.00;23.50;;;;;;;;;;5008746;28;20187;-57
2021/12/17 05:03:00;;;;;;;35.13;22.57;;;;;;;;;;5012384;28;20258;-57
2021/12/17 05:05:29;;;;;;;37.27;22.87;;;;;;;;;;5010100;28;20649;-57
2021/12/17 05:08:04;;;;;;;32.97;20.93;;;;;;;;;;4989967;28;20678;-57
2021/12/17 05:10:52;;;;;;;34.23;22.13;;;;;;;;;;4990179;28;20175;-57
2021/12/17 05:18:58;;;;;;;36.07;22.50;;;;;;;;;;5004188;28;20198;-57
2021/12/17 05:21:25;;;;;;;36.57;21.73;;;;;;;;;;4987674;28;20530;-57
2021/12/17 05:23:52;;;;;;;37.63;23.13;;;;;;;;;;4988990;28;20290;-57
2021/12/17 05:26:19;;;;;;;39.13;23.33;;;;;;;;;;4989171;28;20187;-57
2021/12/17 05:28:46;;;;;;;39.13;23.30;;;;;;;;;;5006700;28;20241;-58
2021/12/17 05:31:14;;;;;;;39.10;23.37;;;;;;;;;;4989177;28;20179;-57
2021/12/17 05:33:41;;;;;;;38.40;22.63;;;;;;;;;;4992874;28;20183;-58
2021/12/17 05:36:07;;;;;;;38.43;22.80;;;;;;;;;;4995938;28;20175;-57
2021/12/17 05:38:34;;;;;;;33.33;22.40;;;;;;;;;;4990958;28;20240;-57
2021/12/17 05:41:00;;;;;;;41.17;23.10;;;;;;;;;;5005860;28;20275;-58
2021/12/17 05:43:26;;;;;;;38.00;22.40;;;;;;;;;;5010730;28;20548;-57
2021/12/17 05:48:26;;;;;;;38.77;22.67;;;;;;;;;;5013972;28;20688;-58
2021/12/17 05:50:55;;;;;;;37.50;22.23;;;;;;;;;;5009328;28;20171;-58
2021/12/17 05:53:21;;;;;;;38.77;22.67;;;;;;;;;;5009368;28;20198;-58
2021/12/17 05:55:48;;;;;;;39.70;23.07;;;;;;;;;;5016401;28;20221;-58
2021/12/17 05:58:15;;;;;;;42.67;23.03;;;;;;;;;;5007519;28;20768;-58
2021/12/17 06:00:42;;;;;;;39.90;24.53;;;;;;;;;;5023081;28;20652;-58
2021/12/17 06:03:08;;;;;;;46.40;24.50;;;;;;;;;;5008681;28;20633;-58
2021/12/17 06:05:34;;;;;;;45.13;23.87;;;;;;;;;;5019750;28;20680;-58
2021/12/17 06:08:01;;;;;;;39.83;23.40;;;;;;;;;;5009339;28;20198;-58
2021/12/17 06:10:27;;;;;;;41.17;23.57;;;;;;;;;;5020121;28;20249;-59
2021/12/17 06:12:54;;;;;;;41.70;23.10;;;;;;;;;;5007335;28;20174;-59
2021/12/17 06:15:21;;;;;;;42.13;22.70;;;;;;;;;;5019847;28;20182;-58
2021/12/17 06:17:50;;;;;;;43.47;22.17;;;;;;;;;;5011081;28;20555;-58
2021/12/17 06:20:17;;;;;;;41.03;24.13;;;;;;;;;;5011509;28;20181;-58
2021/12/17 06:22:46;;;;;;;36.47;20.80;;;;;;;;;;5034741;28;20178;-58
2021/12/17 06:25:12;;;;;;;39.20;21.67;;;;;;;;;;4996832;28;20177;-58
2021/12/17 06:27:41;;;;;;;36.83;21.83;;;;;;;;;;5014501;28;20611;-58
2021/12/17 06:30:09;;;;;;;44.03;25.03;;;;;;;;;;5003305;28;20541;-58
2021/12/17 06:32:35;;;;;;;42.90;23.50;;;;;;;;;;5008493;28;20278;-58
2021/12/17 06:35:01;;;;;;;41.37;23.30;;;;;;;;;;5018463;28;20266;-58
2021/12/17 06:37:28;;;;;;;40.60;22.70;;;;;;;;;;4979362;28;20815;-58
2021/12/17 06:39:54;;;;;;;37.97;22.20;;;;;;;;;;5022145;28;20193;-58
2021/12/17 06:42:21;;;;;;;40.03;22.10;;;;;;;;;;5010311;28;20173;-58
2021/12/17 06:44:48;;;;;;;40.00;23.13;;;;;;;;;;5009167;28;20178;-58
2021/12/17 06:47:30;;;;;;;36.13;21.67;;;;;;;;;;5007234;28;20641;-58
2021/12/17 07:06:27;;;;;;;34.00;18.77;;;;;;;;;;4928740;29;20184;-58
2021/12/17 07:22:28;;;;;;;26.97;17.80;;;;;;;;;;5024551;28;20185;-57
2021/12/17 07:36:09;;;;;;;29.90;17.70;;;;;;;;;;4983811;28;20183;-57
2021/12/17 07:38:38;;;;;;;30.17;17.43;;;;;;;;;;4975348;28;20183;-57
2021/12/17 07:41:05;;;;;;;27.90;16.97;;;;;;;;;;4993402;28;20222;-57
2021/12/17 07:43:38;;;;;;;27.13;17.20;;;;;;;;;;5022950;28;20174;-57
2021/12/17 07:46:06;;;;;;;30.53;17.43;;;;;;;;;;5028392;28;20621;-57
2021/12/17 07:48:32;;;;;;;28.50;18.00;;;;;;;;;;5010627;28;20243;-58
2021/12/17 07:51:00;;;;;;;29.03;16.27;;;;;;;;;;5011186;28;20181;-57
2021/12/17 07:53:27;;;;;;;27.63;16.17;;;;;;;;;;5011140;28;20239;-57
2021/12/17 07:55:53;;;;;;;27.23;16.80;;;;;;;;;;5021321;28;20228;-57
2021/12/17 07:58:20;;;;;;;28.80;16.23;;;;;;;;;;5018984;28;20208;-57
2021/12/17 08:00:46;;;;;;;32.93;17.33;;;;;;;;;;5009433;28;20316;-57
2021/12/17 08:03:14;;;;;;;30.27;17.73;;;;;;;;;;5028345;28;20178;-57
2021/12/17 08:05:42;;;;;;;26.13;15.73;;;;;;;;;;5020916;28;20173;-57
2021/12/17 08:08:09;;;;;;;28.67;16.57;;;;;;;;;;5013415;28;20569;-57
2021/12/17 08:10:35;;;;;;;24.70;15.47;;;;;;;;;;5010366;28;20173;-57
2021/12/17 08:13:02;;;;;;;25.17;15.73;;;;;;;;;;5022126;28;20175;-57
2021/12/17 08:15:33;;;;;;;26.87;16.30;;;;;;;;;;5041937;28;20562;-57
2021/12/17 08:18:26;;;;;;;28.70;17.27;;;;;;;;;;5013934;28;20186;-57
2021/12/17 08:31:18;;;;;;;28.43;17.13;;;;;;;;;;5023442;28;20641;-57
2021/12/17 08:33:48;;;;;;;30.03;15.67;;;;;;;;;;5025243;28;20235;-57
2021/12/17 08:36:17;;;;;;;24.97;15.20;;;;;;;;;;5021071;28;20189;-56
2021/12/17 08:38:44;;;;;;;27.83;16.53;;;;;;;;;;5008370;28;20538;-57
2021/12/17 08:41:10;;;;;;;27.60;15.13;;;;;;;;;;5008767;28;20188;-57
2021/12/17 08:43:36;;;;;;;30.23;15.97;;;;;;;;;;5029372;28;20251;-58
2021/12/17 08:46:03;;;;;;;27.27;15.40;;;;;;;;;;5025776;28;20743;-57
2021/12/17 08:48:32;;;;;;;27.03;15.57;;;;;;;;;;5026391;28;20652;-57
2021/12/17 08:51:02;;;;;;;25.17;14.07;;;;;;;;;;5026437;28;20178;-57
2021/12/17 08:53:28;;;;;;;26.40;16.13;;;;;;;;;;5008526;28;20213;-57
2021/12/17 08:55:55;;;;;;;28.00;15.47;;;;;;;;;;5022052;28;20224;-58
2021/12/17 08:58:21;;;;;;;25.80;15.53;;;;;;;;;;5006798;28;20186;-57
2021/12/17 09:00:48;;;;;;;26.57;15.17;;;;;;;;;;4987122;28;20273;-57
2021/12/17 09:03:14;;;;;;;29.83;15.63;;;;;;;;;;4988180;28;20551;-58
2021/12/17 09:05:42;;;;;;;26.40;15.20;;;;;;;;;;4988059;28;20263;-57
2021/12/17 09:08:09;;;;;;;24.67;15.37;;;;;;;;;;4988900;28;20638;-58
2021/12/17 09:10:35;;;;;;;25.73;14.60;;;;;;;;;;5006537;28;20182;-58
2021/12/17 09:13:02;;;;;;;27.13;14.63;;;;;;;;;;5006552;28;20656;-57
2021/12/17 09:15:28;;;;;;;25.13;14.70;;;;;;;;;;5003214;28;20633;-58
2021/12/17 09:17:54;;;;;;;27.13;14.43;;;;;;;;;;4988398;28;20186;-58
2021/12/17 09:20:20;;;;;;;26.60;14.97;;;;;;;;;;4992694;28;20182;-57
2021/12/17 09:22:46;;;;;;;29.40;15.73;;;;;;;;;;5009655;28;20613;-58
2021/12/17 09:25:14;;;;;;;24.30;13.80;;;;;;;;;;4991716;28;20241;-58
2021/12/17 09:27:41;;;;;;;25.70;14.10;;;;;;;;;;5009920;28;20305;-58
2021/12/17 09:30:08;;;;;;;26.50;13.80;;;;;;;;;;5010331;28;20179;-58
2021/12/17 09:32:35;;;;;;;29.50;15.23;;;;;;;;;;5011711;28;20190;-58
2021/12/17 09:35:01;;;;;;;23.20;13.63;;;;;;;;;;4993147;28;20174;-57
2021/12/17 09:37:27;;;;;;;26.37;14.67;;;;;;;;;;5011381;28;20185;-58
2021/12/17 09:39:57;;;;;;;26.40;14.10;;;;;;;;;;4993000;28;20178;-58
2021/12/17 09:42:23;;;;;;;23.40;13.83;;;;;;;;;;4991881;28;20427;-58
2021/12/17 09:44:49;;;;;;;26.10;14.13;;;;;;;;;;5008449;28;20603;-58
2021/12/17 09:47:16;;;;;;;26.90;14.57;;;;;;;;;;5008416;28;20267;-58
2021/12/17 09:49:43;;;;;;;24.00;14.23;;;;;;;;;;5008256;28;20203;-62
2021/12/17 09:52:10;;;;;;;26.63;14.20;;;;;;;;;;4992075;28;20179;-58
2021/12/17 09:54:36;;;;;;;23.13;13.40;;;;;;;;;;5008489;28;20269;-58
2021/12/17 09:57:04;;;;;;;25.43;14.50;;;;;;;;;;5016512;28;20292;-58
2021/12/17 09:59:30;;;;;;;26.03;13.73;;;;;;;;;;5027705;28;20190;-57
2021/12/17 10:01:57;;;;;;;24.60;12.93;;;;;;;;;;5027840;28;20275;-58
2021/12/17 10:04:28;;;;;;;24.03;13.93;;;;;;;;;;5029098;28;20178;-58
2021/12/17 10:06:54;;;;;;;23.03;13.90;;;;;;;;;;5006493;28;20236;-58
2021/12/17 10:09:20;;;;;;;28.63;15.57;;;;;;;;;;5007104;28;20408;-59
2021/12/17 10:12:07;;;;;;;25.93;15.03;;;;;;;;;;5026863;28;20178;-57
2021/12/17 10:14:33;;;;;;;23.03;13.47;;;;;;;;;;5020928;28;20596;-57
2021/12/17 10:17:10;;;;;;;28.73;15.70;;;;;;;;;;4995857;28;20236;-58
2021/12/17 10:19:44;;;;;;;26.70;14.77;;;;;;;;;;5028819;28;20263;-58
2021/12/17 10:22:11;;;;;;;25.40;15.23;;;;;;;;;;5012498;28;20182;-58
2021/12/17 10:24:38;;;;;;;26.40;14.73;;;;;;;;;;5011026;28;20197;-58
2021/12/17 10:27:26;;;;;;;29.60;16.60;;;;;;;;;;5006133;28;20178;-58
2021/12/17 10:29:52;;;;;;;32.00;16.03;;;;;;;;;;5011269;28;20182;-58
2021/12/17 10:32:20;;;;;;;27.07;16.13;;;;;;;;;;5011154;28;20182;-58
2021/12/17 10:34:59;;;;;;;26.33;15.30;;;;;;;;;;5011260;28;20189;-58
2021/12/17 10:37:39;;;;;;;26.47;15.07;;;;;;;;;;5026477;28;20185;-58
2021/12/17 10:40:25;;;;;;;26.83;15.53;;;;;;;;;;5019189;28;20190;-58
2021/12/17 10:43:00;;;;;;;26.87;14.87;;;;;;;;;;4989870;28;20192;-58
2021/12/17 10:45:29;;;;;;;25.53;15.63;;;;;;;;;;5015007;28;20170;-58
2021/12/17 10:48:21;;;;;;;25.17;15.03;;;;;;;;;;5004890;28;20193;-58
2021/12/17 10:50:48;;;;;;;30.53;16.27;;;;;;;;;;5029619;28;20193;-58
2021/12/17 10:53:15;;;;;;;29.17;17.27;;;;;;;;;;5032208;28;20260;-58
2021/12/17 10:55:44;;;;;;;25.07;15.67;;;;;;;;;;4998958;28;20296;-58
2021/12/17 10:58:11;;;;;;;24.73;15.07;;;;;;;;;;4991385;28;20191;-58
2021/12/17 11:00:58;;;;;;;24.80;15.23;;;;;;;;;;5001582;28;20175;-58
2021/12/17 11:03:25;;;;;;;27.93;15.03;;;;;;;;;;5009008;28;20182;-58
2021/12/17 11:05:51;;;;;;;26.70;14.80;;;;;;;;;;4993903;28;20202;-58
2021/12/17 11:08:31;;;;;;;26.90;16.23;;;;;;;;;;4976129;28;20562;-58
2021/12/17 11:11:08;;;;;;;25.60;16.00;;;;;;;;;;5009750;28;20533;-58
2021/12/17 11:13:35;;;;;;;23.53;15.03;;;;;;;;;;4992014;28;20264;-58
2021/12/17 11:16:01;;;;;;;25.03;15.57;;;;;;;;;;5007317;28;20170;-58
2021/12/17 11:18:28;;;;;;;26.70;16.07;;;;;;;;;;4974715;28;20830;-58
2021/12/17 11:20:56;;;;;;;27.90;16.37;;;;;;;;;;5003983;28;20229;-58
2021/12/17 11:23:23;;;;;;;26.23;16.07;;;;;;;;;;5012969;28;20200;-57
2021/12/17 11:25:50;;;;;;;28.97;15.93;;;;;;;;;;5003073;28;20190;-58
2021/12/17 11:28:17;;;;;;;25.13;16.50;;;;;;;;;;5016798;28;20684;-58
2021/12/17 11:30:47;;;;;;;25.30;16.30;;;;;;;;;;4984144;28;20182;-58
2021/12/17 11:33:13;;;;;;;27.10;17.23;;;;;;;;;;4989881;28;20170;-58
2021/12/17 11:35:42;;;;;;;27.87;17.63;;;;;;;;;;4991338;28;20167;-58
2021/12/17 11:38:18;;;;;;;28.40;17.40;;;;;;;;;;4991069;28;20193;-58
2021/12/17 11:40:50;;;;;;;24.40;17.27;;;;;;;;;;5006239;28;20247;-58
2021/12/17 11:43:26;;;;;;;29.33;17.77;;;;;;;;;;5001133;28;20660;-57
2021/12/17 11:45:59;;;;;;;25.20;17.07;;;;;;;;;;4988038;28;20660;-57
2021/12/17 11:48:27;;;;;;;28.87;17.03;;;;;;;;;;5001721;28;20735;-59
2021/12/17 11:51:03;;;;;;;27.27;17.63;;;;;;;;;;5000906;28;20642;-57
2021/12/17 11:53:29;;;;;;;26.10;16.07;;;;;;;;;;4963774;28;20711;-58
2021/12/17 11:55:59;;;;;;;25.17;16.07;;;;;;;;;;5003218;28;20681;-57
2021/12/17 11:58:43;;;;;;;24.40;15.40;;;;;;;;;;5000087;28;20201;-57
2021/12/17 12:01:09;;;;;;;25.97;16.17;;;;;;;;;;5016408;28;20596;-58
2021/12/17 12:03:35;;;;;;;25.50;15.67;;;;;;;;;;5021861;28;20174;-58
2021/12/17 12:06:02;;;;;;;26.97;16.63;;;;;;;;;;5010025;28;20272;-57
2021/12/17 12:08:38;;;;;;;26.87;17.23;;;;;;;;;;5020405;28;20618;-57
2021/12/17 12:11:22;;;;;;;21.27;15.37;;;;;;;;;;5000490;28;20174;-58
2021/12/17 12:13:49;;;;;;;25.13;17.13;;;;;;;;;;5020717;28;20664;-56
2021/12/17 12:16:19;;;;;;;23.90;15.97;;;;;;;;;;5019571;28;20181;-57
2021/12/17 12:18:52;;;;;;;25.03;16.87;;;;;;;;;;5021067;28;20186;-57
2021/12/17 12:21:23;;;;;;;24.63;16.77;;;;;;;;;;5003288;28;20196;-57
2021/12/17 12:23:53;;;;;;;24.63;16.17;;;;;;;;;;5020216;28;20398;-57
2021/12/17 12:26:27;;;;;;;25.77;16.27;;;;;;;;;;5020602;28;20267;-56
2021/12/17 12:28:56;;;;;;;27.03;15.93;;;;;;;;;;5017265;28;20200;-57
2021/12/17 12:31:26;;;;;;;23.30;16.37;;;;;;;;;;5020027;28;20214;-57
2021/12/17 12:34:02;;;;;;;26.73;16.33;;;;;;;;;;5019721;28;20196;-57
2021/12/17 12:36:40;;;;;;;22.40;15.97;;;;;;;;;;5008164;28;20546;-58
2021/12/17 12:39:33;;;;;;;27.10;16.90;;;;;;;;;;5012585;28;20198;-59
2021/12/17 12:42:03;;;;;;;23.37;15.87;;;;;;;;;;5011085;28;20248;-58
2021/12/17 12:44:42;;;;;;;21.33;14.83;;;;;;;;;;5006278;28;20259;-58
2021/12/17 12:47:10;;;;;;;23.10;16.03;;;;;;;;;;5025820;28;20659;-58
2021/12/17 12:49:49;;;;;;;22.10;14.33;;;;;;;;;;5010911;28;20205;-58
2021/12/17 12:52:26;;;;;;;22.73;15.90;;;;;;;;;;5035505;28;20181;-59
2021/12/17 12:55:00;;;;;;;24.17;15.77;;;;;;;;;;5020096;28;20205;-59
2021/12/17 12:57:27;;;;;;;20.10;15.00;;;;;;;;;;5007721;28;20222;-59
2021/12/17 12:59:55;;;;;;;23.47;15.80;;;;;;;;;;5002691;28;20205;-58
2021/12/17 13:02:25;;;;;;;20.27;15.03;;;;;;;;;;5007127;28;20216;-59
2021/12/17 13:04:53;;;;;;;19.93;14.33;;;;;;;;;;5008157;28;20190;-59
2021/12/17 13:07:30;;;;;;;21.37;15.27;;;;;;;;;;5007973;28;20205;-58
2021/12/17 13:09:56;;;;;;;20.33;15.00;;;;;;;;;;5003885;28;20193;-58
2021/12/17 13:12:26;;;;;;;20.43;14.40;;;;;;;;;;4995267;28;20263;-57
2021/12/17 13:14:56;;;;;;;19.93;14.43;;;;;;;;;;4995919;28;20586;-57
2021/12/17 13:20:04;;;;;;;21.33;14.07;;;;;;;;;;4992750;28;20559;-57
2021/12/17 13:20:53;;;;;;;22.83;15.33;;;;;;;;;;4997330;28;20187;-57
2021/12/17 13:23:19;;;;;;;18.83;13.70;;;;;;;;;;5001258;28;20190;-57
2021/12/17 13:25:45;;;;;;;16.83;13.23;;;;;;;;;;4974160;28;20631;-57
2021/12/17 13:28:12;;;;;;;20.17;15.10;;;;;;;;;;4981953;28;20206;-57
2021/12/17 13:30:38;;;;;;;18.93;13.07;;;;;;;;;;4996525;28;20190;-56
2021/12/17 13:33:04;;;;;;;16.40;13.00;;;;;;;;;;4991755;28;20461;-57
2021/12/17 13:35:34;;;;;;;17.03;12.40;;;;;;;;;;4993219;28;20270;-57
2021/12/17 13:38:01;;;;;;;17.23;12.27;;;;;;;;;;5002625;28;20182;-56
2021/12/17 13:40:28;;;;;;;16.70;11.83;;;;;;;;;;4984928;28;20667;-58
2021/12/17 13:42:55;;;;;;;15.37;12.47;;;;;;;;;;5006173;28;20200;-57
2021/12/17 13:45:22;;;;;;;17.93;12.40;;;;;;;;;;4991351;28;20550;-57
2021/12/17 13:47:50;;;;;;;15.33;11.90;;;;;;;;;;5008304;28;20187;-57
2021/12/17 13:50:33;;;;;;;14.93;11.70;;;;;;;;;;4990764;28;20240;-57
2021/12/17 13:53:02;;;;;;;15.83;11.47;;;;;;;;;;4994217;28;20568;-58
2021/12/17 13:55:30;;;;;;;18.53;12.83;;;;;;;;;;4990186;28;20189;-58
2021/12/17 13:57:57;;;;;;;13.97;10.77;;;;;;;;;;5003962;28;20243;-58
2021/12/17 14:00:25;;;;;;;15.17;11.27;;;;;;;;;;4989625;28;20194;-58
2021/12/17 14:02:53;;;;;;;14.87;11.27;;;;;;;;;;4997256;28;20175;-58
2021/12/17 14:05:25;;;;;;;13.13;10.67;;;;;;;;;;5009921;28;20246;-58
2021/12/17 14:07:52;;;;;;;15.53;10.87;;;;;;;;;;5009503;28;20232;-58
2021/12/17 14:10:23;;;;;;;12.67;10.23;;;;;;;;;;5009638;28;20182;-58
2021/12/17 14:12:50;;;;;;;13.40;9.03;;;;;;;;;;4990705;28;20725;-58
2021/12/17 14:15:22;;;;;;;12.50;9.80;;;;;;;;;;5004658;28;20179;-58
2021/12/17 14:17:58;;;;;;;14.20;9.87;;;;;;;;;;5001963;28;20182;-58
2021/12/17 14:20:30;;;;;;;11.50;9.47;;;;;;;;;;5005793;28;20221;-57
2021/12/17 14:23:00;;;;;;;12.30;9.33;;;;;;;;;;4990001;28;20680;-59
2021/12/17 14:25:29;;;;;;;11.30;8.97;;;;;;;;;;5007389;28;20524;-58
2021/12/17 14:27:56;;;;;;;12.10;9.60;;;;;;;;;;5005762;28;20605;-58
2021/12/17 14:30:28;;;;;;;10.30;8.87;;;;;;;;;;4985917;28;20281;-58
2021/12/17 14:32:54;;;;;;;12.30;9.53;;;;;;;;;;4992187;28;20206;-57
2021/12/17 14:35:39;;;;;;;11.67;9.20;;;;;;;;;;5004063;28;20214;-58
2021/12/17 14:38:06;;;;;;;12.70;9.97;;;;;;;;;;5003345;28;20175;-58
2021/12/17 14:40:50;;;;;;;12.63;9.07;;;;;;;;;;5006478;28;20290;-58
2021/12/17 14:43:21;;;;;;;12.00;9.20;;;;;;;;;;4988824;28;20186;-58
2021/12/17 14:45:58;;;;;;;10.73;7.93;;;;;;;;;;5003870;28;20182;-58
2021/12/17 14:48:41;;;;;;;10.57;8.33;;;;;;;;;;5008405;28;20213;-58
2021/12/17 15:04:49;;;;;;;11.70;8.73;;;;;;;;;;4998599;28;20444;-58
2021/12/17 15:07:15;;;;;;;9.50;8.13;;;;;;;;;;5007304;28;20678;-59
2021/12/17 15:09:46;;;;;;;9.57;7.73;;;;;;;;;;5024078;28;20226;-58
2021/12/17 15:13:00;;;;;;;9.60;8.63;;;;;;;;;;5000578;28;20667;-58
2021/12/17 15:15:00;;;;;;;10.20;8.13;;;;;;;;;;5009306;28;20186;-58
2021/12/17 15:17:26;;;;;;;12.03;9.10;;;;;;;;;;4999211;28;20243;-59
2021/12/17 15:19:52;;;;;;;8.47;7.50;;;;;;;;;;5009595;28;20182;-58
2021/12/17 15:22:18;;;;;;;10.70;8.80;;;;;;;;;;5004228;28;20260;-59
2021/12/17 15:24:45;;;;;;;9.83;8.67;;;;;;;;;;5020054;28;20726;-58
2021/12/17 15:27:13;;;;;;;10.93;8.50;;;;;;;;;;5016727;28;20200;-58
2021/12/17 15:29:40;;;;;;;9.57;8.40;;;;;;;;;;5020330;28;20318;-58
2021/12/17 15:32:06;;;;;;;9.53;8.53;;;;;;;;;;5015097;28;20223;-58
2021/12/17 15:34:33;;;;;;;9.80;8.80;;;;;;;;;;5003834;28;20177;-58
2021/12/17 15:36:59;;;;;;;10.60;9.23;;;;;;;;;;5003404;28;20178;-59
2021/12/17 15:39:27;;;;;;;10.60;8.63;;;;;;;;;;5024691;28;20193;-58
2021/12/17 15:41:53;;;;;;;10.43;9.30;;;;;;;;;;5026568;28;20537;-59
2021/12/17 15:44:20;;;;;;;10.47;8.87;;;;;;;;;;5028530;28;20621;-59
2021/12/17 15:46:50;;;;;;;10.90;8.40;;;;;;;;;;5027461;28;20552;-59
2021/12/17 15:49:16;;;;;;;9.13;8.23;;;;;;;;;;5024239;28;20251;-59
2021/12/17 15:51:42;;;;;;;8.70;7.80;;;;;;;;;;5025596;28;20188;-59
2021/12/17 15:54:11;;;;;;;10.57;8.60;;;;;;;;;;5021080;28;20189;-59
2021/12/17 15:56:40;;;;;;;9.57;8.57;;;;;;;;;;4993560;28;20230;-59
2021/12/17 15:59:07;;;;;;;9.17;8.27;;;;;;;;;;4999456;28;20277;-58
2021/12/17 16:01:33;;;;;;;10.20;9.10;;;;;;;;;;4999806;28;20179;-65
2021/12/17 16:03:59;;;;;;;8.87;7.97;;;;;;;;;;4983953;28;20182;-58
2021/12/17 16:06:29;;;;;;;9.27;8.37;;;;;;;;;;4984780;28;20389;-58
2021/12/17 16:08:58;;;;;;;10.00;8.43;;;;;;;;;;5004291;28;20222;-59
2021/12/17 16:11:51;;;;;;;9.53;8.20;;;;;;;;;;4984621;28;20205;-58
2021/12/17 16:22:34;;;;;;;9.20;8.30;;;;;;;;;;4997441;28;20221;-58
2021/12/17 16:25:00;;;;;;;9.47;8.53;;;;;;;;;;5011828;28;20265;-58
2021/12/17 16:27:26;;;;;;;8.63;7.73;;;;;;;;;;5006820;28;20190;-58
2021/12/17 16:29:54;;;;;;;9.10;8.20;;;;;;;;;;5013615;28;20201;-58
2021/12/17 16:32:21;;;;;;;8.67;7.80;;;;;;;;;;4990256;28;20183;-58
2021/12/17 16:34:47;;;;;;;8.50;7.70;;;;;;;;;;4995135;28;20182;-57
2021/12/17 16:37:13;;;;;;;9.07;7.13;;;;;;;;;;4980368;28;20183;-58
2021/12/17 16:39:39;;;;;;;8.43;7.60;;;;;;;;;;4983736;28;20285;-57
2021/12/17 16:42:10;;;;;;;7.73;6.93;;;;;;;;;;5001697;28;20186;-58
2021/12/17 16:44:51;;;;;;;7.67;6.87;;;;;;;;;;4998895;28;20197;-58
2021/12/17 16:47:24;;;;;;;7.60;6.90;;;;;;;;;;4999940;28;20182;-58
2021/12/17 16:49:50;;;;;;;7.63;6.93;;;;;;;;;;4998237;28;20194;-57
2021/12/17 16:52:17;;;;;;;8.03;6.83;;;;;;;;;;4998597;28;20210;-58
2021/12/17 16:54:43;;;;;;;12.80;7.30;;;;;;;;;;4998021;28;20182;-58
2021/12/17 16:57:10;;;;;;;7.57;6.87;;;;;;;;;;5000094;28;20222;-58
2021/12/17 16:59:37;;;;;;;6.93;6.33;;;;;;;;;;4989611;28;20232;-58
2021/12/17 17:02:03;;;;;;;7.40;6.60;;;;;;;;;;4998127;28;22065;-58
2021/12/17 17:04:30;;;;;;;7.47;6.77;;;;;;;;;;4981654;28;20309;-57
2021/12/17 17:06:57;;;;;;;6.93;6.27;;;;;;;;;;4992410;28;20269;-57
2021/12/17 17:09:23;;;;;;;7.37;6.67;;;;;;;;;;4996372;28;20210;-58
2021/12/17 17:11:51;;;;;;;7.40;6.47;;;;;;;;;;4983010;28;20372;-57
2021/12/17 17:14:21;;;;;;;6.80;6.03;;;;;;;;;;4980454;28;20190;-57
2021/12/17 17:16:47;;;;;;;7.73;7.03;;;;;;;;;;4999201;28;20232;-57
2021/12/17 17:19:17;;;;;;;8.07;7.27;;;;;;;;;;4986826;28;20197;-57
2021/12/17 17:21:43;;;;;;;7.20;6.50;;;;;;;;;;4963973;28;20655;-57
2021/12/17 17:24:10;;;;;;;7.87;7.10;;;;;;;;;;4996436;28;20199;-57
2021/12/17 17:26:36;;;;;;;7.60;6.80;;;;;;;;;;4996230;28;20190;-57
2021/12/17 17:29:05;;;;;;;7.70;7.00;;;;;;;;;;5000905;28;20536;-57
2021/12/17 17:31:32;;;;;;;7.67;6.37;;;;;;;;;;5008809;28;20221;-57
2021/12/17 17:33:59;;;;;;;7.10;6.23;;;;;;;;;;4987104;28;20183;-57
2021/12/17 17:36:25;;;;;;;7.70;7.00;;;;;;;;;;4989485;28;20611;-57
2021/12/17 17:38:52;;;;;;;8.03;7.33;;;;;;;;;;4975401;28;20191;-57
2021/12/17 17:41:20;;;;;;;7.57;6.73;;;;;;;;;;5009502;28;20441;-57
2021/12/17 17:43:47;;;;;;;8.17;7.37;;;;;;;;;;5011218;28;20582;-58
2021/12/17 17:46:16;;;;;;;7.80;7.03;;;;;;;;;;5005008;28;20189;-57
2021/12/17 17:48:43;;;;;;;7.57;6.87;;;;;;;;;;5009516;28;20190;-58
2021/12/17 17:51:09;;;;;;;7.60;6.77;;;;;;;;;;5010268;28;20182;-58